EGMD/LYX METAR and TAF weather

Enter ICAO airport designator
Station Type Date Time Source
EGMD METAR 2021/07/27 22:50 UTC NOAA

EGMD 272250Z AUTO 22015KT 9999 OVC008/// 17/16 Q1008


Station Type Date Time Source
EGMD Decoded METAR 2021/07/27 22:50 UTC NOAA

Lydd Airport , United Kingdom (EGMD) 50-57N 000-56E
Jul 27, 2021 - 06:50 PM EDT / 2021.07.27 2250 UTC
Wind: from the SW (220 degrees) at 17 MPH (15 KT):0
Visibility: greater than 7 mile(s):0
Sky conditions: overcast
Temperature: 62 F (17 C)
Dew Point: 60 F (16 C)
Relative Humidity: 93%
Pressure (altimeter): 29.77 in. Hg (1008 hPa)
ob: EGMD 272250Z AUTO 22015KT 9999 OVC008/// 17/16 Q1008
cycle: 23

Station Type Date Time Source
EGMD TAF UTC NOAA

Error!

Example: see airport list